createdAt,value
2018-07-31T00:00:22.163Z,97922.21
2018-07-31T00:01:25.338Z,97926.20
2018-07-31T00:02:28.607Z,97924.02
2018-07-31T00:03:31.692Z,97928.06
2018-07-31T00:04:36.345Z,97932.08
2018-07-31T00:05:40.487Z,97922.97
2018-07-31T00:06:43.843Z,97927.52
2018-07-31T00:07:47.424Z,97931.92
2018-07-31T00:08:50.491Z,97930.31
2018-07-31T00:09:53.552Z,97931.67
2018-07-31T00:10:56.825Z,97921.69
2018-07-31T00:12:00.345Z,97932.99
2018-07-31T00:13:03.274Z,97921.45
2018-07-31T00:14:06.240Z,97918.23
2018-07-31T00:15:11.279Z,97917.83
2018-07-31T00:16:15.193Z,97914.63
2018-07-31T00:17:19.095Z,97918.32
2018-07-31T00:18:23.072Z,97918.36
2018-07-31T00:19:25.996Z,97922.56
2018-07-31T00:20:29.753Z,97918.57
2018-07-31T00:21:33.114Z,97919.18
2018-07-31T00:22:36.093Z,97922.20
2018-07-31T00:23:39.495Z,97920.22
2018-07-31T00:24:43.233Z,97920.40
2018-07-31T00:25:46.710Z,97922.20
2018-07-31T00:26:50.585Z,97921.22
2018-07-31T00:27:53.778Z,97919.73
2018-07-31T00:28:57.026Z,97925.73
2018-07-31T00:30:00.390Z,97918.80
2018-07-31T00:31:04.027Z,97923.36
2018-07-31T00:32:06.980Z,97921.00
2018-07-31T00:33:09.984Z,97919.23
2018-07-31T00:34:13.665Z,97915.10
2018-07-31T00:35:16.623Z,97914.34
2018-07-31T00:36:21.097Z,97908.03
2018-07-31T00:37:24.203Z,97909.44
2018-07-31T00:38:27.181Z,97907.06
2018-07-31T00:39:30.151Z,97906.29
2018-07-31T00:40:33.101Z,97917.53
2018-07-31T00:41:36.083Z,97909.41
2018-07-31T00:42:39.434Z,97909.62
2018-07-31T00:43:42.389Z,97911.58
2018-07-31T00:44:45.345Z,97912.19
2018-07-31T00:45:48.348Z,97911.78
2018-07-31T00:46:53.766Z,97907.62
2018-07-31T00:47:56.713Z,97909.76
2018-07-31T00:49:00.712Z,97911.34
2018-07-31T00:50:04.698Z,97909.74
2018-07-31T00:51:07.619Z,97919.42
2018-07-31T00:52:13.552Z,97914.69
2018-07-31T00:53:17.261Z,97912.27
2018-07-31T00:54:20.212Z,97908.58
2018-07-31T00:55:24.322Z,97911.56
2018-07-31T00:56:27.348Z,97905.42
2018-07-31T00:57:30.274Z,97912.48
2018-07-31T00:58:33.239Z,97912.23
2018-07-31T00:59:36.201Z,97908.30
2018-07-31T01:00:39.135Z,97909.85
2018-07-31T01:01:42.394Z,97916.20
2018-07-31T01:02:45.358Z,97913.23
2018-07-31T01:03:48.323Z,97903.92
2018-07-31T01:04:51.318Z,97904.17
2018-07-31T01:05:54.261Z,97900.96
2018-07-31T01:06:57.249Z,97900.18
2018-07-31T01:08:00.636Z,97897.21
2018-07-31T01:09:06.005Z,97894.05
2018-07-31T01:10:08.945Z,97893.62
2018-07-31T01:11:11.856Z,97899.72
2018-07-31T01:12:14.775Z,97893.77
2018-07-31T01:13:17.710Z,97888.07
2018-07-31T01:14:21.170Z,97895.77
2018-07-31T01:15:24.095Z,97892.03
2018-07-31T01:16:27.045Z,97897.99
2018-07-31T01:17:29.997Z,97901.94
2018-07-31T01:18:33.955Z,97900.95
2018-07-31T01:19:36.941Z,97905.89
2018-07-31T01:20:40.290Z,97902.55
2018-07-31T01:21:43.248Z,97901.77
2018-07-31T01:22:46.196Z,97899.98
2018-07-31T01:23:50.090Z,97900.96
2018-07-31T01:24:56.999Z,97902.55
2018-07-31T01:26:00.360Z,97897.25
2018-07-31T01:27:03.291Z,97899.58
2018-07-31T01:28:06.249Z,97902.75
2018-07-31T01:29:09.196Z,97905.52
2018-07-31T01:30:12.670Z,97898.80
2018-07-31T01:31:16.024Z,97899.98
2018-07-31T01:32:19.699Z,97901.97
2018-07-31T01:33:22.638Z,97897.82
2018-07-31T01:34:35.175Z,97904.91
2018-07-31T01:35:38.127Z,97898.59
2018-07-31T01:36:41.078Z,97897.98
2018-07-31T01:37:45.704Z,97894.44
2018-07-31T01:38:49.256Z,97900.59
2018-07-31T01:39:53.776Z,97898.59
2018-07-31T01:40:58.358Z,97901.58
2018-07-31T01:42:02.424Z,97901.17
2018-07-31T01:43:05.397Z,97894.85
2018-07-31T01:44:08.381Z,97897.03
2018-07-31T01:45:11.785Z,97896.23
2018-07-31T01:46:14.943Z,97892.28
2018-07-31T01:47:17.901Z,97894.24
2018-07-31T01:48:20.847Z,97893.05
2018-07-31T01:49:24.378Z,97895.45
2018-07-31T01:50:27.338Z,97895.82
2018-07-31T01:51:30.647Z,97899.19
2018-07-31T01:52:33.646Z,97890.50
2018-07-31T01:53:36.716Z,97895.42
2018-07-31T01:54:39.686Z,97895.23
2018-07-31T01:55:42.665Z,97897.20
2018-07-31T01:56:45.635Z,97894.24
2018-07-31T01:57:49.097Z,97890.51
2018-07-31T01:58:52.078Z,97888.31
2018-07-31T01:59:55.085Z,97892.27
2018-07-31T02:00:58.068Z,97886.35
2018-07-31T02:02:01.031Z,97886.56
2018-07-31T02:03:05.663Z,97884.58
2018-07-31T02:04:09.000Z,97885.96
2018-07-31T02:05:11.951Z,97889.12
2018-07-31T02:06:14.968Z,97883.40
2018-07-31T02:07:18.018Z,97886.52
2018-07-31T02:08:20.985Z,97888.64
2018-07-31T02:09:23.963Z,97885.28
2018-07-31T02:10:27.242Z,97889.09
2018-07-31T02:11:30.192Z,97887.92
2018-07-31T02:12:33.151Z,97883.77
2018-07-31T02:13:36.186Z,97886.95
2018-07-31T02:14:39.146Z,97881.81
2018-07-31T02:15:42.129Z,97884.58
2018-07-31T02:16:45.547Z,97878.84
2018-07-31T02:17:48.553Z,97874.48
2018-07-31T02:18:51.543Z,97871.52
2018-07-31T02:19:54.473Z,97869.73
2018-07-31T02:20:57.450Z,97877.62
2018-07-31T02:22:00.415Z,97869.73
2018-07-31T02:23:03.785Z,97873.48
2018-07-31T02:24:06.743Z,97870.09
2018-07-31T02:25:09.706Z,97871.31
2018-07-31T02:26:12.635Z,97875.06
2018-07-31T02:27:15.693Z,97867.77
2018-07-31T02:28:18.877Z,97872.11
2018-07-31T02:29:26.946Z,97869.76
2018-07-31T02:30:29.946Z,97871.31
2018-07-31T02:31:32.946Z,97872.14
2018-07-31T02:32:35.910Z,97865.79
2018-07-31T02:33:38.874Z,97872.52
2018-07-31T02:34:41.804Z,97869.53
2018-07-31T02:36:59.276Z,97868.45
2018-07-31T02:38:02.285Z,97872.81
2018-07-31T02:39:05.534Z,97870.32
2018-07-31T02:40:08.513Z,97875.99
2018-07-31T02:41:11.455Z,97872.41
2018-07-31T02:42:14.764Z,97868.27
2018-07-31T02:43:17.782Z,97863.52
2018-07-31T02:44:20.762Z,97870.80
2018-07-31T02:45:23.726Z,97868.23
2018-07-31T02:46:26.826Z,97866.41
2018-07-31T02:47:29.968Z,97870.59
2018-07-31T02:48:33.486Z,97867.65
2018-07-31T02:49:36.449Z,97865.90
2018-07-31T02:50:39.413Z,97868.81
2018-07-31T02:51:42.361Z,97864.90
2018-07-31T02:52:45.491Z,97872.63
2018-07-31T02:53:48.460Z,97875.46
2018-07-31T02:54:51.872Z,97871.48
2018-07-31T02:55:54.801Z,97873.48
2018-07-31T02:56:57.796Z,97869.70
2018-07-31T02:58:00.749Z,97868.48
2018-07-31T02:59:03.819Z,97869.88
2018-07-31T03:00:07.703Z,97876.62
2018-07-31T03:01:10.983Z,97870.86
2018-07-31T03:02:13.982Z,97867.49
2018-07-31T03:03:16.923Z,97864.52
2018-07-31T03:04:19.835Z,97869.91
2018-07-31T03:05:22.766Z,97868.75
2018-07-31T03:06:25.719Z,97868.69
2018-07-31T03:07:29.028Z,97864.34
2018-07-31T03:08:32.000Z,97868.23
2018-07-31T03:09:35.051Z,97873.77
2018-07-31T03:10:38.012Z,97870.73
2018-07-31T03:11:40.972Z,97876.83
2018-07-31T03:12:45.103Z,97880.94
2018-07-31T03:13:48.789Z,97876.25
2018-07-31T03:14:51.765Z,97876.47
2018-07-31T03:15:54.769Z,97874.75
2018-07-31T03:16:57.737Z,97874.36
2018-07-31T03:18:00.718Z,97870.02
2018-07-31T03:19:03.669Z,97877.88
2018-07-31T03:20:09.709Z,97877.05
2018-07-31T03:21:12.649Z,97875.52
2018-07-31T03:22:15.620Z,97876.50
2018-07-31T03:23:18.587Z,97870.83
2018-07-31T03:24:21.547Z,97876.58
2018-07-31T03:25:24.510Z,97874.43
2018-07-31T03:26:27.979Z,97875.02
2018-07-31T03:27:30.974Z,97882.44
2018-07-31T03:28:33.939Z,97876.12
2018-07-31T03:29:36.901Z,97875.10
2018-07-31T03:30:39.868Z,97880.22
2018-07-31T03:31:42.832Z,97878.10
2018-07-31T03:32:46.211Z,97880.47
2018-07-31T03:33:49.179Z,97875.73
2018-07-31T03:34:52.153Z,97877.70
2018-07-31T03:50:27.040Z,97880.47
2018-07-31T03:51:30.468Z,97873.50
2018-07-31T03:52:33.398Z,97869.73
2018-07-31T03:53:36.356Z,97876.43
2018-07-31T03:54:39.347Z,97882.70
2018-07-31T03:55:42.299Z,97879.17
2018-07-31T03:56:45.269Z,97881.93
2018-07-31T03:57:49.204Z,97887.30
2018-07-31T03:58:53.304Z,97878.83
2018-07-31T03:59:59.200Z,97877.86
2018-07-31T04:01:04.187Z,97877.81
2018-07-31T04:02:07.230Z,97887.65
2018-07-31T04:03:16.470Z,97887.28
2018-07-31T04:04:19.455Z,97882.39
2018-07-31T04:05:22.515Z,97890.41
2018-07-31T04:06:25.509Z,97889.78
2018-07-31T04:07:29.797Z,97890.55
2018-07-31T04:08:32.744Z,97895.14
2018-07-31T04:09:35.722Z,97886.72
2018-07-31T04:10:38.681Z,97890.30
2018-07-31T04:11:41.930Z,97896.81
2018-07-31T04:12:44.897Z,97889.52
2018-07-31T04:13:49.041Z,97891.19
2018-07-31T04:14:51.992Z,97896.57
2018-07-31T04:15:54.991Z,97893.34
2018-07-31T04:16:58.534Z,97890.60
2018-07-31T04:18:02.160Z,97897.27
2018-07-31T04:19:05.575Z,97894.50
2018-07-31T04:20:08.581Z,97898.06
2018-07-31T04:21:11.505Z,97898.86
2018-07-31T04:22:14.479Z,97894.92
2018-07-31T04:23:17.485Z,97894.75
2018-07-31T04:24:22.113Z,97897.92
2018-07-31T04:25:26.689Z,97896.40
2018-07-31T04:26:29.982Z,97898.77
2018-07-31T04:27:32.921Z,97901.72
2018-07-31T04:28:35.894Z,97903.45
2018-07-31T04:29:38.881Z,97896.91
2018-07-31T04:30:41.837Z,97896.74
2018-07-31T04:31:47.659Z,97896.87
2018-07-31T04:32:50.634Z,97892.73
2018-07-31T04:33:53.632Z,97894.31
2018-07-31T04:34:56.893Z,97893.14
2018-07-31T04:35:59.883Z,97900.39
2018-07-31T04:37:02.862Z,97900.55
2018-07-31T04:38:06.241Z,97899.14
2018-07-31T04:39:09.208Z,97898.80
2018-07-31T04:40:12.224Z,97902.02
2018-07-31T04:41:15.241Z,97899.81
2018-07-31T04:42:18.319Z,97897.44
2018-07-31T04:43:21.423Z,97899.80
2018-07-31T04:44:25.573Z,97899.84
2018-07-31T04:45:30.359Z,97902.83
2018-07-31T04:46:34.390Z,97908.09
2018-07-31T04:47:37.731Z,97905.64
2018-07-31T04:48:41.673Z,97906.64
2018-07-31T04:49:44.650Z,97910.39
2018-07-31T04:50:47.917Z,97903.73
2018-07-31T04:51:50.890Z,97904.98
2018-07-31T04:52:54.372Z,97904.37
2018-07-31T04:53:57.363Z,97905.34
2018-07-31T04:55:00.933Z,97904.21
2018-07-31T04:56:04.282Z,97904.47
2018-07-31T04:57:07.593Z,97907.65
2018-07-31T04:58:10.500Z,97917.52
2018-07-31T04:59:13.659Z,97919.78
2018-07-31T05:00:16.683Z,97918.33
2018-07-31T05:01:19.631Z,97914.79
2018-07-31T05:02:22.614Z,97920.36
2018-07-31T05:03:26.117Z,97919.20
2018-07-31T05:04:29.161Z,97911.33
2018-07-31T05:05:32.176Z,97910.73
2018-07-31T05:06:37.119Z,97915.56
2018-07-31T05:07:40.823Z,97921.51
2018-07-31T05:08:45.663Z,97913.42
2018-07-31T05:09:49.051Z,97915.86
2018-07-31T05:10:52.564Z,97917.53
2018-07-31T05:11:55.563Z,97911.64
2018-07-31T05:12:58.607Z,97911.06
2018-07-31T05:14:01.620Z,97921.14
2018-07-31T05:15:04.778Z,97917.77
2018-07-31T05:16:08.716Z,97911.84
2018-07-31T05:17:11.980Z,97917.39
2018-07-31T05:18:15.296Z,97918.34
2018-07-31T05:19:18.930Z,97917.56
2018-07-31T05:20:22.202Z,97916.55
2018-07-31T05:21:25.363Z,97919.91
2018-07-31T05:22:28.975Z,97920.48
2018-07-31T05:23:32.171Z,97917.08
2018-07-31T05:24:35.344Z,97924.22
2018-07-31T05:25:39.443Z,97919.92
2018-07-31T05:26:42.483Z,97926.27
2018-07-31T05:27:45.498Z,97929.23
2018-07-31T05:28:49.047Z,97926.86
2018-07-31T05:29:52.783Z,97928.82
2018-07-31T05:30:55.722Z,97921.47
2018-07-31T05:31:58.771Z,97927.77
2018-07-31T05:33:01.763Z,97927.58
2018-07-31T05:34:04.819Z,97932.13
2018-07-31T05:35:08.852Z,97931.78
2018-07-31T05:36:11.782Z,97930.98
2018-07-31T05:37:14.889Z,97933.94
2018-07-31T05:38:17.882Z,97932.57
2018-07-31T05:39:20.945Z,97940.11
2018-07-31T05:40:23.941Z,97938.92
2018-07-31T05:41:26.935Z,97943.45
2018-07-31T05:42:29.918Z,97945.23
2018-07-31T05:43:32.959Z,97939.92
2018-07-31T05:44:39.509Z,97945.47
2018-07-31T05:45:44.688Z,97949.41
2018-07-31T05:46:48.083Z,97948.81
2018-07-31T05:47:51.044Z,97943.09
2018-07-31T05:48:54.006Z,97946.44
2018-07-31T05:49:57.020Z,97947.05
2018-07-31T05:50:59.980Z,97946.44
2018-07-31T05:52:03.070Z,97949.58
2018-07-31T05:53:06.602Z,97941.13
2018-07-31T05:54:09.549Z,97953.76
2018-07-31T05:55:12.490Z,97947.22
2018-07-31T05:56:16.142Z,97945.05
2018-07-31T05:57:19.317Z,97941.88
2018-07-31T05:58:22.594Z,97946.04
2018-07-31T05:59:26.065Z,97946.05
2018-07-31T06:00:29.064Z,97949.80
2018-07-31T06:01:32.061Z,97951.63
2018-07-31T06:02:36.807Z,97945.10
2018-07-31T06:03:40.710Z,97948.64
2018-07-31T06:04:43.762Z,97949.59
2018-07-31T06:05:47.978Z,97949.41
2018-07-31T06:06:50.998Z,97942.11
2018-07-31T06:07:54.256Z,97946.83
2018-07-31T06:08:57.236Z,97949.61
2018-07-31T06:10:00.216Z,97956.13
2018-07-31T06:11:03.234Z,97950.80
2018-07-31T06:12:06.361Z,97956.55
2018-07-31T06:13:09.347Z,97954.36
2018-07-31T06:14:12.369Z,97944.20
2018-07-31T06:15:15.396Z,97951.70
2018-07-31T06:16:18.398Z,97950.91
2018-07-31T06:17:21.359Z,97951.12
2018-07-31T06:18:24.320Z,97949.58
2018-07-31T06:19:27.315Z,97949.19
2018-07-31T06:20:30.870Z,97952.56
2018-07-31T06:21:33.914Z,97956.72
2018-07-31T06:22:37.263Z,97956.11
2018-07-31T06:23:40.840Z,97952.77
2018-07-31T06:24:43.875Z,97950.36
2018-07-31T06:25:46.866Z,97958.27
2018-07-31T06:26:49.870Z,97959.03
2018-07-31T06:27:54.874Z,97956.64
2018-07-31T06:28:58.178Z,97958.99
2018-07-31T06:30:01.758Z,97959.80
2018-07-31T06:31:04.727Z,97960.94
2018-07-31T06:32:07.700Z,97962.91
2018-07-31T06:33:10.700Z,97965.46
2018-07-31T06:34:13.723Z,97965.48
2018-07-31T06:35:17.095Z,97964.45
2018-07-31T06:36:24.667Z,97963.97
2018-07-31T06:37:27.639Z,97960.49
2018-07-31T06:38:30.600Z,97961.86
2018-07-31T06:39:33.601Z,97963.27
2018-07-31T06:40:36.626Z,97964.42
2018-07-31T06:41:40.061Z,97962.19
2018-07-31T06:42:43.076Z,97965.86
2018-07-31T06:43:46.120Z,97960.05
2018-07-31T06:44:49.290Z,97962.09
2018-07-31T06:45:52.278Z,97957.75
2018-07-31T06:46:56.067Z,97964.34
2018-07-31T06:47:59.647Z,97966.86
2018-07-31T06:49:03.664Z,97962.27
2018-07-31T06:50:07.139Z,97966.93
2018-07-31T06:51:10.152Z,97968.97
2018-07-31T06:52:13.163Z,97968.97
2018-07-31T06:53:16.235Z,97962.98
2018-07-31T06:54:19.600Z,97962.70
2018-07-31T06:55:22.612Z,97965.75
2018-07-31T06:56:25.604Z,97969.98
2018-07-31T06:57:28.629Z,97970.66
2018-07-31T06:58:31.877Z,97970.93
2018-07-31T06:59:34.897Z,97980.87
2018-07-31T07:00:38.291Z,97979.20
2018-07-31T07:01:41.389Z,97978.31
2018-07-31T07:02:44.461Z,97982.25
2018-07-31T07:03:47.533Z,97984.89
2018-07-31T07:04:50.518Z,97991.11
2018-07-31T07:05:54.539Z,97988.22
2018-07-31T07:06:57.988Z,97983.63
2018-07-31T07:08:01.011Z,97992.84
2018-07-31T07:09:04.195Z,97986.80
2018-07-31T07:10:07.886Z,97981.86
2018-07-31T07:11:10.866Z,97991.94
2018-07-31T07:12:14.095Z,97988.30
2018-07-31T07:13:17.575Z,97986.80
2018-07-31T07:14:20.563Z,97989.08
2018-07-31T07:15:24.272Z,97984.16
2018-07-31T07:16:28.256Z,97987.94
2018-07-31T07:17:31.304Z,97985.20
2018-07-31T07:18:34.853Z,97986.62
2018-07-31T07:19:38.531Z,97990.63
2018-07-31T07:20:41.580Z,97986.22
2018-07-31T07:21:44.666Z,97989.39
2018-07-31T07:22:47.674Z,97991.09
2018-07-31T07:23:50.683Z,97994.66
2018-07-31T07:24:53.729Z,97992.88
2018-07-31T07:25:57.222Z,97996.50
2018-07-31T07:27:01.985Z,97993.21
2018-07-31T07:28:04.999Z,97995.38
2018-07-31T07:29:08.523Z,97997.26
2018-07-31T07:30:11.498Z,97997.63
2018-07-31T07:31:14.782Z,97996.95
2018-07-31T07:32:18.207Z,97992.34
2018-07-31T07:33:21.425Z,97991.02
2018-07-31T07:34:25.577Z,97989.35
2018-07-31T07:35:28.552Z,97992.30
2018-07-31T07:36:31.480Z,97995.16
2018-07-31T07:37:35.079Z,97994.09
2018-07-31T07:38:38.448Z,97989.27
2018-07-31T07:39:41.435Z,97992.84
2018-07-31T07:40:44.453Z,97997.25
2018-07-31T07:41:47.492Z,98001.70
2018-07-31T07:42:51.511Z,97998.47
2018-07-31T07:43:55.330Z,98010.75
2018-07-31T07:44:58.745Z,98005.08
2018-07-31T07:46:02.701Z,98005.42
2018-07-31T07:47:06.288Z,98007.55
2018-07-31T07:48:09.276Z,98007.36
2018-07-31T07:49:12.237Z,98001.89
2018-07-31T07:50:15.181Z,98005.46
2018-07-31T07:51:18.674Z,98006.22
2018-07-31T07:52:21.883Z,98000.97
2018-07-31T07:53:25.320Z,98001.66
2018-07-31T07:54:31.304Z,98005.52
2018-07-31T07:55:36.127Z,98004.23
2018-07-31T07:56:39.558Z,98007.51
2018-07-31T07:57:44.572Z,98009.67
2018-07-31T07:58:48.620Z,98000.51
2018-07-31T07:59:52.144Z,97999.90
2018-07-31T08:00:56.703Z,98007.14
2018-07-31T08:01:59.666Z,98000.33
2018-07-31T08:03:02.702Z,98009.22
2018-07-31T08:04:06.701Z,98006.25
2018-07-31T08:05:10.008Z,97995.49
2018-07-31T08:06:12.972Z,97995.66
2018-07-31T08:07:16.404Z,98000.32
2018-07-31T08:08:19.375Z,98000.02
2018-07-31T08:09:22.372Z,98004.61
2018-07-31T08:10:25.818Z,97994.09
2018-07-31T08:11:28.897Z,97998.98
2018-07-31T08:12:32.354Z,98000.83
2018-07-31T08:13:35.363Z,98001.69
2018-07-31T08:14:41.945Z,97999.94
2018-07-31T08:15:45.279Z,98000.11
2018-07-31T08:16:49.166Z,98000.70
2018-07-31T08:17:52.895Z,98002.36
2018-07-31T08:18:56.676Z,97999.92
2018-07-31T08:20:01.595Z,98000.70
2018-07-31T08:21:05.767Z,98006.60
2018-07-31T08:22:08.721Z,98006.60
2018-07-31T08:23:11.688Z,98004.25
2018-07-31T08:24:14.873Z,98006.78
2018-07-31T08:25:19.355Z,98008.59
2018-07-31T08:26:22.323Z,97999.56
2018-07-31T08:27:25.575Z,98004.78
2018-07-31T08:28:29.154Z,98000.64
2018-07-31T08:29:33.003Z,98009.90
2018-07-31T08:30:36.578Z,98008.25
2018-07-31T08:31:41.791Z,98011.97
2018-07-31T08:32:47.963Z,98006.74
2018-07-31T08:33:52.083Z,98008.73
2018-07-31T08:34:55.881Z,98010.63
2018-07-31T08:36:00.077Z,98010.13
2018-07-31T08:37:03.103Z,98009.75
2018-07-31T08:38:07.068Z,98008.20
2018-07-31T08:39:10.648Z,98010.55
2018-07-31T08:40:14.002Z,98012.06
2018-07-31T08:41:17.108Z,98010.31
2018-07-31T08:42:21.678Z,98015.84
2018-07-31T08:43:24.691Z,98006.73
2018-07-31T08:44:27.702Z,98009.59
2018-07-31T08:45:30.741Z,98010.50
2018-07-31T08:46:34.031Z,98011.87
2018-07-31T08:47:37.091Z,98014.19
2018-07-31T08:48:40.057Z,98015.23
2018-07-31T08:49:43.045Z,98013.75
2018-07-31T08:50:46.091Z,98011.65
2018-07-31T08:51:50.095Z,98013.27
2018-07-31T08:52:53.516Z,98017.34
2018-07-31T08:53:56.533Z,98015.05
2018-07-31T08:54:59.639Z,98007.80
2018-07-31T08:56:02.848Z,98001.86
2018-07-31T08:57:06.383Z,98001.11
2018-07-31T08:58:10.120Z,98001.38
2018-07-31T08:59:14.592Z,98001.63
2018-07-31T09:00:18.786Z,98000.53
2018-07-31T09:01:22.796Z,98007.09
2018-07-31T09:02:25.792Z,97997.03
2018-07-31T09:03:29.831Z,97998.62
2018-07-31T09:04:32.858Z,97997.84
2018-07-31T09:05:36.158Z,98005.47
2018-07-31T09:06:40.000Z,98003.56
2018-07-31T09:07:43.692Z,97999.27
2018-07-31T09:08:47.626Z,98001.47
2018-07-31T09:09:50.850Z,97995.50
2018-07-31T09:10:54.117Z,98001.73
2018-07-31T09:11:57.389Z,98007.69
2018-07-31T09:13:00.325Z,98002.87
2018-07-31T09:14:03.966Z,98007.31
2018-07-31T09:15:07.012Z,97995.42
2018-07-31T09:16:10.052Z,98000.63
2018-07-31T09:17:14.388Z,98004.27
2018-07-31T09:18:22.181Z,98005.28
2018-07-31T09:19:25.242Z,98005.08
2018-07-31T09:20:28.220Z,98009.83
2018-07-31T09:21:31.478Z,98014.44
2018-07-31T09:22:34.454Z,98003.89
2018-07-31T09:23:39.416Z,98007.81
2018-07-31T09:24:43.867Z,98004.23
2018-07-31T09:25:48.098Z,98007.40
2018-07-31T09:26:51.068Z,98012.39
2018-07-31T09:27:54.310Z,98007.25
2018-07-31T09:28:57.367Z,98007.66
2018-07-31T09:30:00.404Z,98003.69
2018-07-31T09:31:08.566Z,98003.59
2018-07-31T09:32:13.176Z,98001.06
2018-07-31T09:33:17.865Z,98006.09
2018-07-31T09:34:22.110Z,98006.33
2018-07-31T09:35:25.320Z,98009.91
2018-07-31T09:36:29.607Z,98003.37
2018-07-31T09:37:32.890Z,98009.56
2018-07-31T09:38:35.903Z,98004.25
2018-07-31T09:39:43.358Z,98012.52
2018-07-31T09:40:47.503Z,98008.73
2018-07-31T09:41:50.471Z,98002.45
2018-07-31T09:42:53.473Z,98006.45
2018-07-31T09:43:56.849Z,97999.98
2018-07-31T09:44:59.857Z,98003.43
2018-07-31T09:46:02.814Z,98018.73
2018-07-31T09:47:06.029Z,98014.91
2018-07-31T09:48:09.627Z,98010.70
2018-07-31T10:05:49.541Z,98017.70
2018-07-31T10:06:52.816Z,98014.21
2018-07-31T10:07:56.470Z,98013.66
2018-07-31T10:08:59.495Z,98007.85
2018-07-31T10:10:03.161Z,97977.44
2018-07-31T10:11:07.995Z,98000.93
2018-07-31T10:12:11.150Z,98000.48
2018-07-31T10:13:17.850Z,97976.38
2018-07-31T10:14:20.836Z,98007.73
2018-07-31T10:15:23.938Z,98010.30
2018-07-31T10:16:28.090Z,98007.14
2018-07-31T10:17:31.875Z,98013.28
2018-07-31T10:19:46.397Z,98006.03
2018-07-31T10:20:50.272Z,98010.52
2018-07-31T10:21:53.449Z,98006.92
2018-07-31T10:22:57.462Z,98005.09
2018-07-31T10:24:01.051Z,97995.48
2018-07-31T10:25:04.974Z,97982.35
2018-07-31T10:26:08.248Z,97977.81
2018-07-31T10:27:12.556Z,97999.69
2018-07-31T10:28:15.610Z,98004.36
2018-07-31T10:29:18.601Z,97997.73
2018-07-31T10:30:21.985Z,98003.31
2018-07-31T10:31:25.031Z,98000.00
2018-07-31T10:32:28.662Z,98006.95
2018-07-31T10:33:31.617Z,98004.51
2018-07-31T10:34:35.080Z,98002.80
2018-07-31T10:35:38.858Z,97996.55
2018-07-31T10:36:45.679Z,97992.97
2018-07-31T10:37:53.633Z,97997.14
2018-07-31T10:38:57.929Z,98008.45
2018-07-31T10:40:02.494Z,98001.55
2018-07-31T10:41:05.456Z,98001.27
2018-07-31T10:42:08.446Z,97998.11
2018-07-31T10:43:12.757Z,97987.47
2018-07-31T10:44:16.476Z,97999.92
2018-07-31T10:45:19.524Z,98012.41
2018-07-31T10:46:24.123Z,98018.80
2018-07-31T10:47:28.577Z,97999.94
2018-07-31T10:48:32.425Z,98007.72
2018-07-31T10:49:37.175Z,98010.38
2018-07-31T10:50:40.654Z,98003.87
2018-07-31T10:51:44.391Z,98001.88
2018-07-31T10:52:48.373Z,98007.19
2018-07-31T10:53:53.971Z,97989.23
2018-07-31T10:54:59.583Z,97994.83
2018-07-31T10:56:03.925Z,97989.77
2018-07-31T10:57:06.947Z,97975.98
2018-07-31T10:58:10.986Z,97984.48
2018-07-31T10:59:17.953Z,97996.26
2018-07-31T11:00:21.623Z,97993.81
2018-07-31T11:01:24.628Z,97970.96
2018-07-31T11:02:28.746Z,97981.56
2018-07-31T11:03:31.727Z,98001.40
2018-07-31T11:04:34.766Z,97989.28
2018-07-31T11:05:38.016Z,97986.05
2018-07-31T11:06:41.559Z,97996.38
2018-07-31T11:07:45.374Z,97999.08
2018-07-31T11:08:51.845Z,97998.17
2018-07-31T11:09:54.856Z,97981.79
2018-07-31T11:10:58.398Z,97993.30
2018-07-31T11:12:01.448Z,97985.78
2018-07-31T11:13:06.934Z,97999.62
2018-07-31T11:14:10.597Z,97990.22
2018-07-31T11:15:14.085Z,97986.71
2018-07-31T11:16:17.335Z,97988.47
2018-07-31T11:17:21.304Z,97985.88
2018-07-31T11:18:24.285Z,97990.06
2018-07-31T11:19:27.356Z,97994.50
2018-07-31T11:20:30.408Z,97975.97
2018-07-31T11:21:34.526Z,98004.05
2018-07-31T11:22:38.477Z,97977.07
2018-07-31T11:23:41.436Z,97976.70
2018-07-31T11:24:44.449Z,97984.77
2018-07-31T11:25:49.016Z,97982.95
2018-07-31T11:26:52.039Z,97981.66
2018-07-31T11:27:56.551Z,97975.70
2018-07-31T11:29:00.181Z,97983.03
2018-07-31T11:30:04.773Z,97986.59
2018-07-31T11:31:08.030Z,97983.11
2018-07-31T11:32:11.267Z,97987.73
2018-07-31T11:33:14.708Z,97967.83
2018-07-31T11:34:17.686Z,97983.77
2018-07-31T11:35:21.420Z,97978.91
2018-07-31T11:36:25.084Z,97970.96
2018-07-31T11:37:29.819Z,97981.27
2018-07-31T11:38:32.901Z,97982.39
2018-07-31T11:39:38.755Z,97978.17
2018-07-31T11:40:41.799Z,97983.97
2018-07-31T11:41:44.825Z,97982.23
2018-07-31T11:42:48.476Z,97965.77
2018-07-31T11:43:52.406Z,97971.17
2018-07-31T11:44:55.448Z,97974.17
2018-07-31T11:45:58.828Z,97986.05
2018-07-31T11:47:02.706Z,97979.98
2018-07-31T11:48:05.697Z,97977.66
2018-07-31T11:49:09.944Z,97973.84
2018-07-31T11:50:12.913Z,97962.81
2018-07-31T11:51:17.222Z,97950.80
2018-07-31T11:52:21.198Z,97964.00
2018-07-31T11:53:24.227Z,97957.77
2018-07-31T11:54:28.439Z,97963.35
2018-07-31T11:55:32.369Z,97947.64
2018-07-31T11:56:35.428Z,97973.50
2018-07-31T11:57:38.427Z,97978.98
2018-07-31T11:58:41.426Z,97984.17
2018-07-31T11:59:45.302Z,97972.38
2018-07-31T12:00:49.236Z,97968.80
2018-07-31T12:01:52.829Z,97962.05
2018-07-31T12:02:57.214Z,97963.88
2018-07-31T12:04:00.462Z,97964.06
2018-07-31T12:05:03.455Z,97962.08
2018-07-31T12:06:09.243Z,97964.46
2018-07-31T12:07:12.270Z,97966.97
2018-07-31T12:08:15.798Z,97965.05
2018-07-31T12:09:20.667Z,97972.44
2018-07-31T12:10:23.791Z,97967.06
2018-07-31T12:11:27.634Z,97964.58
2018-07-31T12:12:31.043Z,97969.58
2018-07-31T12:13:34.710Z,97970.73
2018-07-31T12:14:37.712Z,97976.06
2018-07-31T12:15:42.023Z,97966.03
2018-07-31T12:16:45.107Z,97967.91
2018-07-31T12:17:49.997Z,97972.03
2018-07-31T12:18:53.275Z,97973.47
2018-07-31T12:19:59.983Z,97972.52
2018-07-31T12:21:03.004Z,97965.67
2018-07-31T12:22:08.142Z,97967.73
2018-07-31T12:23:12.690Z,97964.23
2018-07-31T12:24:15.679Z,97963.76
2018-07-31T12:25:19.453Z,97966.64
2018-07-31T12:26:22.554Z,97960.70
2018-07-31T12:27:26.257Z,97962.96
2018-07-31T12:28:30.841Z,97966.21
2018-07-31T12:29:36.937Z,97969.53
2018-07-31T12:30:41.643Z,97960.88
2018-07-31T12:31:44.766Z,97963.61
2018-07-31T12:32:48.635Z,97965.47
2018-07-31T12:33:51.613Z,97969.28
2018-07-31T12:34:55.009Z,97971.99
2018-07-31T12:35:59.207Z,97973.04
2018-07-31T12:37:02.324Z,97970.38
2018-07-31T12:38:05.319Z,97982.43
2018-07-31T12:39:08.391Z,97977.78
2018-07-31T12:40:11.389Z,97978.52
2018-07-31T12:41:14.801Z,97972.83
2018-07-31T12:42:17.864Z,97973.05
2018-07-31T12:43:21.972Z,97972.30
2018-07-31T12:44:25.259Z,97971.59
2018-07-31T12:45:28.278Z,97979.70
2018-07-31T12:46:31.675Z,97971.20
2018-07-31T12:47:37.047Z,97963.19
2018-07-31T12:48:40.141Z,97955.38
2018-07-31T12:49:43.734Z,97966.48
2018-07-31T12:50:46.741Z,97966.14
2018-07-31T12:51:50.720Z,97965.47
2018-07-31T12:52:54.321Z,97962.95
2018-07-31T12:53:57.295Z,97971.05
2018-07-31T12:55:00.320Z,97966.92
2018-07-31T12:56:03.407Z,97963.48
2018-07-31T12:57:07.811Z,97967.41
2018-07-31T12:58:10.803Z,97965.66
2018-07-31T12:59:15.114Z,97965.24